Northwest Alabama Regional Airport
KMSL : now visible

Airfield :











YOU CAN JOIN US ON...

 
LOGIN :

Register | Disclaimer

   EN    FR    IT 

 









Legend :    VFR   Marginal VFR   IFR   Intensive IFR   Very Intensive IFR
Visi :
Ceiling :
>= 8 km
>= 3000ft
5 to 8 km
1000 to 3000 ft
1500m to 5 km
500 to 1000 ft
800 to 1500m
200 to 500 ft
< 800m
< 200 ft
Symbols :   Thunderstorms  Fog  Heavy snow  Heavy precipitations  Wind > 20 kt







- Airport Elevation : 551 ft
- IATA code : MSL


KMSL - Northwest Alabama Regional

CURRENT METAR :
  • 211653Z AUTO VRB05KT 10SM FEW030 33/23 A3010 RMK AO2 SLP187 T03280228

EXPIRED METARs :
  • 211553Z AUTO 21007KT 10SM CLR 31/23 A3011 RMK AO2 SLP189 T03110228
  • 211453Z AUTO 19006KT 10SM CLR 29/23 A3010 RMK AO2 SLP186 T02890228 51009

TAF KMSL
Valid from the 21 at 18:00 until the 22 at 18:00 UTC


211720Z 2118/2218 23005KT P6SM SCT040
FM220100 19003KT P6SM FEW040 SCT250
FM221400 22005KT P6SM SCT040 BKN100
No reported NOTAMs for that airfield.



MET'MAP, your aeronautical weather chart ! - Copyright ORBIFLY December 2007 - Disclaimer

ORBIFLY MET'MAP TEAM :

Programming & Development : Alexandra Zaïnal
Concept & Development : Baudouin d'Aumeries
Co-Development & Prog : Marc-Olivier Méhu
Technical & hardware support : Manuel Goepfert

Contact : metmap@orbifly.com




SOURCES & CREDITS :

   NOAA       Earth
Advisory